Station: EBLG - 29/11/2020 16:20Z (il y a 17 minutes)
EBLG 291620Z 36003KT 8000 NSC 00/M02 Q1025 NOSIG
Vent du 360º - 3 kt
Visibilité: 8000 m
Pas de nuages significatifs
Température: +00ºC - Point de rosée: -02ºC - QNH: 1025 hPa
Pas de changement significatif prévu dans les 2 heures qui suivent l'observation